createdAt,value
2023-04-04T00:01:05.180Z,66.57
2023-04-04T00:04:07.252Z,66.32
2023-04-04T00:07:09.326Z,67.30
2023-04-04T00:10:11.498Z,66.58
2023-04-04T00:13:13.563Z,66.63
2023-04-04T00:16:15.789Z,66.29
2023-04-04T00:19:19.083Z,66.14
2023-04-04T00:22:21.152Z,67.00
2023-04-04T00:25:23.151Z,67.21
2023-04-04T00:28:25.263Z,66.16
2023-04-04T00:31:27.624Z,66.13
2023-04-04T00:34:29.761Z,66.24
2023-04-04T00:37:31.920Z,65.81
2023-04-04T00:40:45.861Z,66.04
2023-04-04T00:43:48.115Z,65.77
2023-04-04T00:46:52.460Z,66.19
2023-04-04T00:49:54.698Z,67.73
2023-04-04T00:52:57.168Z,66.80
2023-04-04T00:55:59.519Z,66.42
2023-04-04T00:59:02.059Z,66.53
2023-04-04T01:02:04.513Z,65.89
2023-04-04T01:05:08.147Z,66.08
2023-04-04T01:08:10.343Z,65.94
2023-04-04T01:11:12.665Z,65.57
2023-04-04T01:14:15.142Z,65.56
2023-04-04T01:17:17.611Z,65.16
2023-04-04T01:20:25.479Z,65.35
2023-04-04T01:23:36.837Z,65.20
2023-04-04T01:26:40.155Z,64.28
2023-04-04T01:29:42.327Z,65.13
2023-04-04T01:32:53.433Z,65.41
2023-04-04T01:36:25.833Z,65.09
2023-04-04T01:39:33.381Z,64.36
2023-04-04T01:42:37.292Z,64.32
2023-04-04T01:45:39.786Z,63.75
2023-04-04T01:48:46.796Z,64.70
2023-04-04T01:51:53.398Z,64.45
2023-04-04T01:54:57.400Z,64.41
2023-04-04T01:57:59.650Z,64.15
2023-04-04T02:01:02.002Z,64.21
2023-04-04T02:04:04.935Z,64.00
2023-04-04T02:07:08.317Z,63.55
2023-04-04T02:10:11.352Z,63.34
2023-04-04T02:13:15.198Z,63.62
2023-04-04T02:16:17.397Z,63.19
2023-04-04T02:19:20.192Z,64.26
2023-04-04T02:22:22.214Z,62.99
2023-04-04T02:25:25.642Z,63.39
2023-04-04T02:28:29.021Z,64.08
2023-04-04T02:31:31.424Z,63.68
2023-04-04T02:34:34.802Z,64.04
2023-04-04T02:37:38.103Z,63.87
2023-04-04T02:40:46.155Z,63.42
2023-04-04T02:43:48.351Z,63.24
2023-04-04T02:46:50.615Z,63.87
2023-04-04T02:49:52.936Z,63.31
2023-04-04T02:53:01.501Z,63.01
2023-04-04T02:56:07.539Z,63.15
2023-04-04T02:59:11.419Z,62.85
2023-04-04T03:02:13.727Z,62.95
2023-04-04T03:05:16.057Z,62.50
2023-04-04T03:08:19.108Z,62.26
2023-04-04T03:11:21.706Z,61.68
2023-04-04T03:14:26.848Z,62.82
2023-04-04T03:17:29.950Z,62.58
2023-04-04T03:20:32.307Z,62.50
2023-04-04T03:23:34.374Z,63.50
2023-04-04T03:26:36.779Z,63.67
2023-04-04T03:29:39.879Z,63.57
2023-04-04T03:32:42.027Z,63.30
2023-04-04T03:35:44.290Z,63.12
2023-04-04T03:38:46.386Z,63.04
2023-04-04T03:41:48.439Z,62.86
2023-04-04T03:44:50.669Z,64.04
2023-04-04T03:48:15.822Z,63.07
2023-04-04T03:51:29.392Z,63.03
2023-04-04T03:54:31.771Z,62.82
2023-04-04T03:57:43.513Z,63.36
2023-04-04T04:00:53.954Z,63.19
2023-04-04T04:03:56.142Z,62.89
2023-04-04T04:06:58.735Z,62.82
2023-04-04T04:10:00.875Z,63.08
2023-04-04T04:13:02.991Z,61.26
2023-04-04T04:16:06.030Z,55.10
2023-04-04T04:19:08.975Z,51.39
2023-04-04T04:22:16.957Z,51.25
2023-04-04T04:25:20.812Z,50.67
2023-04-04T04:28:34.268Z,47.80
2023-04-04T04:31:40.759Z,50.00
2023-04-04T04:34:43.108Z,48.90
2023-04-04T04:37:45.235Z,47.30
2023-04-04T04:40:47.507Z,48.32
2023-04-04T04:43:59.974Z,48.36
2023-04-04T04:47:04.242Z,51.89
2023-04-04T04:50:09.144Z,50.05
2023-04-04T04:53:16.848Z,50.18
2023-04-04T04:56:21.544Z,52.06
2023-04-04T04:59:27.286Z,51.19
2023-04-04T05:02:30.207Z,52.17
2023-04-04T05:05:38.109Z,52.29
2023-04-04T05:08:44.697Z,53.78
2023-04-04T05:11:58.816Z,54.72
2023-04-04T05:15:12.531Z,54.43
2023-04-04T05:18:20.175Z,54.20
2023-04-04T05:21:25.031Z,55.36
2023-04-04T05:24:28.845Z,53.23
2023-04-04T05:27:31.720Z,53.26
2023-04-04T05:30:35.645Z,51.28
2023-04-04T05:33:58.136Z,52.97
2023-04-04T05:37:07.568Z,55.42
2023-04-04T05:40:10.276Z,56.53
2023-04-04T05:43:12.732Z,55.53
2023-04-04T05:46:27.369Z,55.67
2023-04-04T05:49:30.814Z,61.97
2023-04-04T05:52:36.369Z,58.74
2023-04-04T05:55:39.224Z,58.93
2023-04-04T05:58:42.881Z,60.74
2023-04-04T06:01:45.414Z,58.79
2023-04-04T06:04:49.508Z,60.76
2023-04-04T06:07:58.490Z,65.93
2023-04-04T06:11:00.770Z,64.25
2023-04-04T06:14:02.800Z,66.47
2023-04-04T06:17:07.045Z,68.18
2023-04-04T06:20:11.461Z,68.51
2023-04-04T06:23:13.656Z,68.07
2023-04-04T06:26:21.106Z,68.47
2023-04-04T06:29:24.507Z,65.97
2023-04-04T06:32:28.969Z,65.07
2023-04-04T06:35:31.167Z,67.09
2023-04-04T06:38:36.063Z,64.85
2023-04-04T06:41:43.710Z,62.34
2023-04-04T06:44:45.975Z,63.37
2023-04-04T06:47:50.401Z,62.37
2023-04-04T06:50:52.615Z,63.87
2023-04-04T06:53:56.947Z,64.05
2023-04-04T06:57:00.440Z,62.13
2023-04-04T07:00:04.932Z,63.14
2023-04-04T07:03:07.118Z,62.63
2023-04-04T07:06:10.271Z,61.57
2023-04-04T07:09:25.855Z,62.03
2023-04-04T07:12:31.937Z,60.32
2023-04-04T07:15:44.613Z,61.82
2023-04-04T07:18:47.027Z,62.77
2023-04-04T07:21:52.195Z,63.21
2023-04-04T07:24:54.853Z,63.18
2023-04-04T07:28:05.698Z,62.92
2023-04-04T07:31:15.058Z,60.33
2023-04-04T07:34:17.495Z,61.89
2023-04-04T07:37:19.793Z,60.32
2023-04-04T07:40:22.300Z,58.80
2023-04-04T07:43:24.397Z,63.10
2023-04-04T07:46:28.111Z,62.84
2023-04-04T07:49:30.423Z,62.56
2023-04-04T07:52:32.514Z,61.58
2023-04-04T07:55:35.018Z,62.33
2023-04-04T07:58:37.582Z,60.58
2023-04-04T08:01:39.676Z,59.08
2023-04-04T08:04:41.929Z,61.16
2023-04-04T08:07:44.158Z,57.58
2023-04-04T08:10:46.344Z,58.41
2023-04-04T08:13:48.443Z,58.28
2023-04-04T08:16:51.998Z,58.63
2023-04-04T08:19:55.818Z,58.97
2023-04-04T08:22:58.660Z,59.46
2023-04-04T08:26:02.688Z,58.60
2023-04-04T08:29:05.006Z,58.44
2023-04-04T08:32:07.027Z,59.13
2023-04-04T08:35:09.954Z,56.98
2023-04-04T08:38:12.132Z,57.54
2023-04-04T08:41:15.925Z,59.36
2023-04-04T08:44:23.330Z,56.99
2023-04-04T08:47:26.893Z,57.85
2023-04-04T08:50:31.252Z,88.47
2023-04-04T08:53:37.393Z,76.91
2023-04-04T08:56:39.542Z,78.20
2023-04-04T08:59:41.771Z,75.02
2023-04-04T09:03:05.483Z,77.39
2023-04-04T09:06:08.549Z,81.43
2023-04-04T09:09:12.450Z,79.27
2023-04-04T09:12:16.163Z,79.44
2023-04-04T09:15:19.606Z,77.54
2023-04-04T09:18:21.850Z,79.39
2023-04-04T09:21:23.917Z,71.01
2023-04-04T09:24:41.709Z,70.91
2023-04-04T09:27:49.256Z,70.05
2023-04-04T09:30:52.890Z,69.56
2023-04-04T09:33:55.118Z,67.97
2023-04-04T09:37:01.349Z,67.72
2023-04-04T09:40:06.519Z,67.39
2023-04-04T09:43:35.569Z,67.13
2023-04-04T09:46:42.427Z,66.72
2023-04-04T09:49:48.365Z,66.37
2023-04-04T09:52:53.148Z,66.35
2023-04-04T09:55:57.516Z,65.16
2023-04-04T09:59:04.628Z,65.38
2023-04-04T10:02:10.708Z,65.18
2023-04-04T10:05:16.159Z,66.40
2023-04-04T10:08:22.473Z,67.19
2023-04-04T10:11:33.548Z,66.43
2023-04-04T10:14:36.748Z,65.39
2023-04-04T10:17:41.046Z,64.91
2023-04-04T10:20:43.893Z,66.45
2023-04-04T10:23:47.339Z,65.38
2023-04-04T10:26:49.458Z,64.35
2023-04-04T10:29:52.239Z,63.82
2023-04-04T10:33:02.834Z,62.76
2023-04-04T10:36:09.240Z,63.21
2023-04-04T10:39:27.798Z,63.36
2023-04-04T10:42:36.755Z,62.21
2023-04-04T10:45:42.607Z,63.89
2023-04-04T10:48:46.406Z,64.51
2023-04-04T10:51:56.378Z,63.78
2023-04-04T10:55:02.654Z,63.44
2023-04-04T10:58:06.336Z,64.07
2023-04-04T11:01:10.090Z,63.45
2023-04-04T11:08:16.816Z,62.52
2023-04-04T11:11:22.649Z,62.62
2023-04-04T11:14:31.959Z,61.89
2023-04-04T11:17:57.768Z,61.99
2023-04-04T11:21:05.413Z,61.77
2023-04-04T11:24:18.726Z,61.07
2023-04-04T11:27:24.751Z,60.68
2023-04-04T11:30:30.465Z,60.44
2023-04-04T11:33:33.300Z,59.66
2023-04-04T11:36:35.565Z,61.01
2023-04-04T11:39:50.879Z,59.66
2023-04-04T11:42:56.250Z,59.97
2023-04-04T11:46:08.111Z,60.05
2023-04-04T11:49:12.586Z,58.80
2023-04-04T11:52:19.414Z,58.60
2023-04-04T11:55:25.027Z,58.12
2023-04-04T11:58:27.631Z,58.02
2023-04-04T12:01:32.443Z,59.03
2023-04-04T12:04:37.376Z,58.13
2023-04-04T12:07:50.094Z,57.96
2023-04-04T12:10:53.215Z,57.99
2023-04-04T12:13:55.764Z,57.83
2023-04-04T12:16:59.623Z,55.99
2023-04-04T12:20:02.332Z,57.09
2023-04-04T12:23:05.072Z,55.71
2023-04-04T12:26:09.634Z,56.70
2023-04-04T12:29:14.066Z,57.22
2023-04-04T12:32:16.201Z,56.82
2023-04-04T12:35:19.187Z,55.37
2023-04-04T12:38:21.490Z,57.64
2023-04-04T12:41:23.637Z,57.40
2023-04-04T12:44:28.007Z,59.66
2023-04-04T12:47:33.146Z,59.12
2023-04-04T12:50:49.907Z,58.66
2023-04-04T12:53:58.496Z,58.27
2023-04-04T12:57:04.435Z,61.11
2023-04-04T13:00:09.637Z,59.07
2023-04-04T13:03:14.698Z,58.39
2023-04-04T13:06:17.923Z,58.79
2023-04-04T13:09:22.827Z,57.49
2023-04-04T13:12:25.250Z,56.78
2023-04-04T13:15:52.823Z,57.63
2023-04-04T13:18:58.090Z,56.58
2023-04-04T13:22:02.814Z,56.30
2023-04-04T13:25:07.464Z,57.42
2023-04-04T13:28:11.786Z,56.22
2023-04-04T13:31:20.240Z,56.55
2023-04-04T13:34:26.972Z,57.39
2023-04-04T13:37:29.026Z,57.43
2023-04-04T13:40:32.826Z,56.13
2023-04-04T13:43:37.714Z,56.89
2023-04-04T13:46:39.896Z,55.36
2023-04-04T13:49:43.156Z,55.58
2023-04-04T13:52:45.293Z,56.08
2023-04-04T13:58:55.792Z,56.09
2023-04-04T14:01:58.126Z,56.41
2023-04-04T14:05:04.131Z,56.89
2023-04-04T14:08:06.948Z,57.02
2023-04-04T14:11:11.927Z,57.46
2023-04-04T14:14:15.706Z,58.29
2023-04-04T14:17:18.449Z,58.11
2023-04-04T14:20:22.815Z,59.04
2023-04-04T14:23:24.910Z,60.99
2023-04-04T14:26:28.061Z,61.25
2023-04-04T14:29:30.184Z,61.87
2023-04-04T14:32:33.285Z,63.05
2023-04-04T14:35:41.984Z,64.00
2023-04-04T14:38:44.408Z,63.67
2023-04-04T14:41:46.677Z,63.34
2023-04-04T14:44:48.939Z,64.39
2023-04-04T14:48:00.441Z,64.73
2023-04-04T14:51:12.976Z,65.45
2023-04-04T14:54:23.680Z,64.89
2023-04-04T14:57:25.940Z,65.81
2023-04-04T15:00:30.000Z,65.00
2023-04-04T15:03:34.954Z,65.45
2023-04-04T15:06:38.345Z,65.58
2023-04-04T15:09:48.641Z,66.00
2023-04-04T15:12:57.902Z,66.57
2023-04-04T15:16:02.089Z,66.51
2023-04-04T15:19:04.219Z,68.14
2023-04-04T15:22:06.521Z,69.19
2023-04-04T15:25:13.590Z,70.12
2023-04-04T15:28:16.002Z,69.10
2023-04-04T15:31:18.161Z,67.84
2023-04-04T15:34:20.493Z,67.58
2023-04-04T15:37:22.959Z,66.12
2023-04-04T15:40:26.213Z,65.96
2023-04-04T15:43:29.925Z,65.20
2023-04-04T15:46:32.205Z,65.19
2023-04-04T15:49:34.969Z,63.66
2023-04-04T15:52:37.328Z,63.31
2023-04-04T15:55:46.752Z,62.89
2023-04-04T15:58:48.890Z,62.09
2023-04-04T16:01:51.205Z,62.11
2023-04-04T16:04:53.457Z,62.01
2023-04-04T16:07:56.543Z,61.86
2023-04-04T16:11:03.073Z,61.17
2023-04-04T16:14:06.270Z,62.38
2023-04-04T16:17:08.915Z,61.98
2023-04-04T16:20:14.297Z,61.43
2023-04-04T16:23:17.930Z,62.55
2023-04-04T16:26:24.796Z,65.64
2023-04-04T16:29:27.533Z,68.21
2023-04-04T16:32:31.948Z,68.26
2023-04-04T16:35:35.266Z,69.32
2023-04-04T16:38:37.773Z,67.95
2023-04-04T16:41:41.151Z,67.99
2023-04-04T16:44:55.952Z,68.23
2023-04-04T16:47:59.094Z,67.53
2023-04-04T16:51:03.770Z,67.58
2023-04-04T16:54:07.476Z,68.36
2023-04-04T16:57:10.018Z,68.27
2023-04-04T17:00:14.480Z,69.00
2023-04-04T17:03:22.687Z,68.54
2023-04-04T17:06:29.503Z,69.80
2023-04-04T17:09:36.941Z,69.37
2023-04-04T17:17:03.349Z,68.66
2023-04-04T17:20:40.634Z,70.01
2023-04-04T17:24:20.816Z,68.03
2023-04-04T17:27:26.227Z,68.84
2023-04-04T17:30:28.303Z,70.46
2023-04-04T17:33:31.579Z,74.16
2023-04-04T17:36:34.525Z,78.86
2023-04-04T17:39:47.134Z,84.33
2023-04-04T17:42:50.366Z,93.15
2023-04-04T17:45:52.782Z,99.41
2023-04-04T17:48:54.890Z,99.75
2023-04-04T17:52:01.360Z,100.00
2023-04-04T17:55:07.581Z,100.00
2023-04-04T17:58:09.658Z,100.00
2023-04-04T18:01:16.391Z,100.00
2023-04-04T18:04:18.743Z,100.00
2023-04-04T18:07:22.745Z,100.00
2023-04-04T18:10:25.723Z,100.00
2023-04-04T18:13:36.926Z,100.00
2023-04-04T18:16:41.064Z,100.00
2023-04-04T18:19:45.109Z,100.00
2023-04-04T18:22:48.464Z,100.00
2023-04-04T18:25:51.164Z,100.00
2023-04-04T18:28:55.403Z,98.42
2023-04-04T18:32:01.744Z,96.52
2023-04-04T18:35:04.485Z,96.57
2023-04-04T18:38:06.648Z,94.93
2023-04-04T18:41:10.121Z,94.91
2023-04-04T18:44:12.497Z,92.34
2023-04-04T18:47:16.105Z,89.83
2023-04-04T18:50:18.823Z,89.84
2023-04-04T18:53:24.206Z,86.62
2023-04-04T18:56:27.590Z,86.79
2023-04-04T18:59:33.577Z,86.74
2023-04-04T19:02:37.670Z,87.92
2023-04-04T19:05:48.204Z,85.77
2023-04-04T19:08:50.499Z,85.76
2023-04-04T19:11:54.012Z,83.93
2023-04-04T19:14:56.125Z,83.62
2023-04-04T19:17:58.665Z,84.56
2023-04-04T19:21:00.770Z,83.12
2023-04-04T19:24:03.381Z,82.43
2023-04-04T19:27:05.626Z,81.96
2023-04-04T19:30:33.729Z,80.83
2023-04-04T19:33:37.640Z,80.40
2023-04-04T19:36:39.882Z,78.63
2023-04-04T19:39:43.892Z,78.96
2023-04-04T19:42:47.373Z,77.40
2023-04-04T19:45:51.884Z,77.68
2023-04-04T19:49:14.060Z,77.66
2023-04-04T19:52:18.951Z,76.74
2023-04-04T19:55:39.797Z,74.71
2023-04-04T19:58:44.117Z,76.30
2023-04-04T20:01:58.017Z,73.75
2023-04-04T20:05:23.478Z,75.13
2023-04-04T20:08:38.698Z,73.52
2023-04-04T20:11:44.565Z,73.42
2023-04-04T20:14:51.024Z,73.37
2023-04-04T20:17:53.130Z,73.84
2023-04-04T20:21:15.614Z,71.82
2023-04-04T20:24:18.630Z,73.44
2023-04-04T20:27:24.828Z,73.06
2023-04-04T20:30:26.862Z,74.01
2023-04-04T20:33:33.074Z,73.91
2023-04-04T20:36:43.988Z,73.66
2023-04-04T20:39:47.613Z,72.23
2023-04-04T20:42:49.832Z,74.18
2023-04-04T20:45:51.883Z,72.28
2023-04-04T20:48:56.926Z,73.10
2023-04-04T20:51:59.045Z,73.10
2023-04-04T20:55:03.108Z,73.94
2023-04-04T20:58:28.734Z,72.61
2023-04-04T21:01:31.080Z,71.77
2023-04-04T21:04:33.462Z,71.67
2023-04-04T21:07:41.049Z,72.20
2023-04-04T21:10:59.973Z,72.49
2023-04-04T21:14:02.145Z,72.24
2023-04-04T21:17:06.480Z,72.71
2023-04-04T21:20:16.278Z,73.19
2023-04-04T21:23:27.363Z,72.15
2023-04-04T21:26:35.042Z,72.80
2023-04-04T21:29:37.531Z,72.55
2023-04-04T21:32:39.677Z,72.49
2023-04-04T21:35:52.960Z,73.15
2023-04-04T21:38:57.883Z,73.02
2023-04-04T21:42:04.673Z,72.92
2023-04-04T21:45:09.718Z,72.91
2023-04-04T21:48:12.061Z,72.06
2023-04-04T21:51:14.100Z,72.23
2023-04-04T21:54:16.575Z,71.34
2023-04-04T21:57:18.805Z,71.84
2023-04-04T22:00:21.302Z,71.23
2023-04-04T22:03:23.513Z,71.19
2023-04-04T22:06:26.524Z,71.06
2023-04-04T22:09:30.053Z,70.22
2023-04-04T22:12:33.348Z,70.48
2023-04-04T22:15:35.443Z,71.62
2023-04-04T22:18:42.945Z,71.23
2023-04-04T22:21:48.392Z,70.36
2023-04-04T22:24:51.334Z,69.63
2023-04-04T22:27:53.938Z,70.06
2023-04-04T22:30:56.161Z,69.55
2023-04-04T22:33:58.426Z,69.85
2023-04-04T22:37:02.949Z,69.49
2023-04-04T22:40:13.034Z,68.62
2023-04-04T22:43:17.254Z,68.67
2023-04-04T22:46:20.075Z,68.61
2023-04-04T22:49:22.382Z,68.51
2023-04-04T22:52:26.619Z,69.34
2023-04-04T22:55:30.009Z,69.20
2023-04-04T22:58:32.122Z,68.71
2023-04-04T23:01:34.299Z,68.58
2023-04-04T23:04:36.608Z,69.47
2023-04-04T23:07:39.354Z,68.46
2023-04-04T23:10:41.882Z,68.04
2023-04-04T23:13:44.489Z,67.48
2023-04-04T23:16:46.768Z,67.08
2023-04-04T23:19:48.937Z,67.67
2023-04-04T23:22:53.067Z,67.50
2023-04-04T23:25:55.240Z,67.04
2023-04-04T23:28:58.262Z,66.83
2023-04-04T23:32:00.610Z,66.67
2023-04-04T23:35:02.678Z,66.39
2023-04-04T23:38:04.899Z,67.15
2023-04-04T23:41:08.152Z,66.74
2023-04-04T23:44:11.034Z,65.93
2023-04-04T23:47:13.813Z,67.47
2023-04-04T23:50:17.380Z,67.40
2023-04-04T23:53:19.565Z,66.48
2023-04-04T23:56:22.686Z,66.31
2023-04-04T23:59:24.902Z,65.90
